Time;durP1;ratioP1;P1;durP2;ratioP2;P2;SDS_P1;SDS_P2;PMS_P1;PMS_P2;Temp;Humidity;BMP_temperature;BMP_pressure;BME280_temperature;BME280_humidity;BME280_pressure;Samples;Min_cycle;Max_cycle;Signal;HPM_P1;HPM_P2
2023/12/28 00:01:14;;;;;;;23.92;3.35;;;11.60;99.90;;;;;;5063174;28;20035;-80
2023/12/28 00:03:41;;;;;;;21.67;3.47;;;11.70;99.90;;;;;;5063548;28;20036;-79
2023/12/28 00:06:06;;;;;;;16.45;2.97;;;11.70;99.90;;;;;;5063298;28;20024;-80
2023/12/28 00:08:32;;;;;;;20.73;3.67;;;11.80;99.90;;;;;;5063688;28;20058;-80
2023/12/28 00:10:58;;;;;;;20.50;3.70;;;11.80;99.90;;;;;;5063573;28;20024;-80
2023/12/28 00:13:24;;;;;;;22.50;3.35;;;11.70;99.90;;;;;;5056850;28;20089;-80
2023/12/28 00:15:49;;;;;;;17.52;3.55;;;11.80;99.90;;;;;;5061772;28;20028;-80
2023/12/28 00:18:15;;;;;;;21.05;2.63;;;11.80;99.90;;;;;;5064418;28;20029;-81
2023/12/28 00:20:41;;;;;;;20.50;3.75;;;11.70;99.90;;;;;;5064267;28;20025;-80
2023/12/28 00:23:06;;;;;;;21.40;4.00;;;11.80;99.90;;;;;;5064942;28;20139;-81
2023/12/28 00:25:32;;;;;;;19.50;3.33;;;11.90;99.90;;;;;;5063346;28;20028;-81
2023/12/28 00:27:57;;;;;;;25.58;3.67;;;11.80;99.90;;;;;;5063791;28;20788;-81
2023/12/28 00:30:23;;;;;;;23.25;3.20;;;11.80;99.90;;;;;;5062104;28;20077;-81
2023/12/28 00:32:49;;;;;;;29.80;3.67;;;11.70;99.90;;;;;;5062456;28;20131;-81
2023/12/28 00:35:18;;;;;;;18.95;3.03;;;11.80;99.90;;;;;;5060008;28;20024;-81
2023/12/28 00:37:43;;;;;;;24.80;3.92;;;11.70;99.90;;;;;;5058549;28;20028;-82
2023/12/28 00:40:09;;;;;;;34.90;3.85;;;11.80;99.90;;;;;;5060535;28;20401;-81
2023/12/28 00:42:35;;;;;;;28.60;5.07;;;11.90;99.90;;;;;;5061345;28;20415;-81
2023/12/28 00:45:01;;;;;;;23.20;3.85;;;11.90;99.90;;;;;;5066239;28;20079;-81
2023/12/28 00:47:26;;;;;;;35.67;5.47;;;11.90;99.90;;;;;;5065651;28;20033;-81
2023/12/28 00:49:52;;;;;;;23.33;3.88;;;11.90;99.90;;;;;;5064566;28;20099;-81
2023/12/28 00:52:17;;;;;;;15.80;2.50;;;11.90;99.90;;;;;;5063855;28;20025;-81
2023/12/28 00:54:43;;;;;;;25.13;3.45;;;11.90;99.90;;;;;;5062881;28;20029;-82
2023/12/28 00:57:08;;;;;;;34.50;3.92;;;12.00;99.90;;;;;;5063788;28;20060;-81
2023/12/28 00:59:34;;;;;;;22.92;4.47;;;11.90;99.90;;;;;;5061706;28;20037;-81
2023/12/28 01:02:00;;;;;;;23.70;4.18;;;12.00;99.90;;;;;;5058624;28;20035;-81
2023/12/28 01:04:25;;;;;;;21.63;3.78;;;12.00;99.90;;;;;;5060858;28;20535;-81
2023/12/28 01:06:52;;;;;;;27.98;4.50;;;12.00;99.90;;;;;;5062134;28;20024;-81
2023/12/28 01:09:18;;;;;;;22.80;4.15;;;11.90;99.90;;;;;;5062793;28;21152;-81
2023/12/28 01:11:44;;;;;;;27.08;3.85;;;12.00;99.90;;;;;;5063973;28;20430;-81
2023/12/28 01:14:09;;;;;;;26.45;3.88;;;12.00;99.90;;;;;;5062001;28;20063;-81
2023/12/28 01:16:35;;;;;;;24.25;3.33;;;12.00;99.90;;;;;;5062782;28;20656;-81
2023/12/28 01:19:01;;;;;;;30.67;5.10;;;12.00;99.90;;;;;;5063992;28;20677;-81
2023/12/28 01:21:28;;;;;;;28.70;5.28;;;11.80;99.90;;;;;;5062248;28;20128;-82
2023/12/28 01:23:54;;;;;;;34.53;4.72;;;11.50;99.90;;;;;;5065770;28;20028;-82
2023/12/28 01:26:20;;;;;;;20.90;3.60;;;11.40;99.90;;;;;;5061605;28;20499;-82
2023/12/28 01:28:46;;;;;;;27.65;4.30;;;11.40;99.90;;;;;;5065218;28;20020;-81
2023/12/28 01:31:12;;;;;;;34.95;4.72;;;11.50;99.90;;;;;;5061294;28;20448;-81
2023/12/28 01:33:37;;;;;;;36.42;5.25;;;11.70;99.90;;;;;;5061003;28;20083;-82
2023/12/28 01:36:23;;;;;;;21.00;3.25;;;11.70;99.90;;;;;;5057856;28;20224;-81
2023/12/28 01:38:49;;;;;;;23.90;4.53;;;11.70;99.90;;;;;;5057208;28;20028;-81
2023/12/28 01:41:15;;;;;;;21.27;3.22;;;11.70;99.90;;;;;;5063167;28;20046;-80
2023/12/28 01:43:42;;;;;;;30.80;4.07;;;11.50;99.90;;;;;;5063853;28;20031;-80
2023/12/28 01:46:17;;;;;;;35.88;5.35;;;11.30;99.90;;;;;;5066913;28;20028;-81
2023/12/28 01:48:46;;;;;;;30.25;3.47;;;11.10;99.90;;;;;;5063207;28;20108;-80
2023/12/28 01:51:13;;;;;;;38.17;4.80;;;10.90;99.90;;;;;;5065090;28;20079;-82
2023/12/28 01:53:39;;;;;;;40.38;5.82;;;10.70;99.90;;;;;;5064451;28;20036;-82
2023/12/28 01:56:06;;;;;;;24.77;4.65;;;10.70;99.90;;;;;;5055993;28;20265;-82
2023/12/28 01:58:35;;;;;;;27.00;4.53;;;10.80;99.90;;;;;;5073202;28;20033;-82
2023/12/28 02:01:01;;;;;;;40.95;5.38;;;10.90;99.90;;;;;;5075497;28;20042;-81
2023/12/28 02:03:27;;;;;;;23.05;5.05;;;10.90;99.90;;;;;;5067596;28;20052;-81
2023/12/28 02:05:54;;;;;;;30.52;3.95;;;11.00;99.90;;;;;;5070950;28;20553;-82
2023/12/28 02:08:19;;;;;;;31.52;5.25;;;11.10;99.90;;;;;;5066956;28;20040;-81
2023/12/28 02:10:45;;;;;;;27.77;4.70;;;11.20;99.90;;;;;;5068488;28;20661;-81
2023/12/28 02:13:11;;;;;;;35.72;4.65;;;11.40;99.90;;;;;;5061957;28;20043;-81
2023/12/28 02:15:36;;;;;;;24.77;4.60;;;11.40;99.90;;;;;;5059616;28;20048;-82
2023/12/28 02:18:11;;;;;;;27.63;4.30;;;11.40;99.90;;;;;;5067534;28;20067;-82
2023/12/28 02:20:39;;;;;;;35.60;5.15;;;11.50;99.90;;;;;;5066381;28;20120;-82
2023/12/28 02:23:06;;;;;;;31.60;3.92;;;11.70;99.90;;;;;;5067589;28;20036;-82
2023/12/28 02:25:31;;;;;;;27.42;4.43;;;11.60;99.90;;;;;;5065525;28;20442;-81
2023/12/28 02:27:58;;;;;;;27.67;4.88;;;11.60;99.90;;;;;;5063958;28;20024;-82
2023/12/28 02:30:25;;;;;;;30.65;5.03;;;11.40;99.90;;;;;;5066307;28;20033;-83
2023/12/28 02:32:54;;;;;;;37.63;4.15;;;10.70;99.90;;;;;;5066611;28;20021;-82
2023/12/28 02:35:27;;;;;;;25.70;3.97;;;10.40;99.90;;;;;;5064908;28;20033;-85
2023/12/28 02:37:56;;;;;;;24.58;2.97;;;10.20;99.90;;;;;;5064100;28;20064;-85
2023/12/28 02:40:23;;;;;;;21.10;2.72;;;10.00;99.90;;;;;;5063495;28;20058;-85
2023/12/28 02:42:49;;;;;;;25.65;4.15;;;10.00;99.90;;;;;;5063469;28;20103;-83
2023/12/28 02:45:15;;;;;;;19.98;2.20;;;9.90;99.90;;;;;;5068155;28;20725;-82
2023/12/28 02:47:40;;;;;;;23.67;2.85;;;9.90;99.90;;;;;;5065541;28;20416;-83
2023/12/28 02:50:07;;;;;;;31.60;3.67;;;10.00;99.90;;;;;;5062607;28;20028;-85
2023/12/28 02:52:32;;;;;;;25.60;4.60;;;10.00;99.90;;;;;;5065629;28;20025;-84
2023/12/28 02:54:58;;;;;;;41.45;4.30;;;10.00;99.90;;;;;;5062972;28;20027;-85
2023/12/28 02:57:24;;;;;;;33.38;5.10;;;10.20;99.90;;;;;;5063073;28;20037;-86
2023/12/28 02:59:49;;;;;;;35.63;5.00;;;10.20;99.90;;;;;;5065204;28;20032;-85
2023/12/28 03:02:15;;;;;;;31.60;5.15;;;10.30;99.90;;;;;;5061789;28;20123;-85
2023/12/28 03:04:56;;;;;;;48.10;5.07;;;10.40;99.90;;;;;;5071760;28;20016;-85
2023/12/28 03:07:22;;;;;;;41.38;4.80;;;10.40;99.90;;;;;;5081367;28;20039;-85
2023/12/28 03:09:47;;;;;;;38.50;6.53;;;10.40;99.90;;;;;;5075700;28;20021;-86
2023/12/28 03:12:13;;;;;;;32.38;4.85;;;10.50;99.90;;;;;;5080988;28;20013;-85
2023/12/28 03:14:38;;;;;;;25.17;4.30;;;10.70;99.90;;;;;;5080944;28;20016;-84
2023/12/28 03:17:04;;;;;;;27.77;4.50;;;10.70;99.90;;;;;;5074735;28;20045;-85
2023/12/28 03:19:30;;;;;;;37.80;5.55;;;10.70;99.90;;;;;;5068627;28;20427;-86
2023/12/28 03:21:55;;;;;;;38.97;5.07;;;10.60;99.90;;;;;;5063645;28;20063;-85
2023/12/28 03:24:21;;;;;;;46.67;6.00;;;10.70;99.90;;;;;;5064460;28;20028;-85
2023/12/28 03:26:46;;;;;;;25.27;5.32;;;10.80;99.90;;;;;;5064215;28;20148;-86
2023/12/28 03:29:12;;;;;;;28.75;5.03;;;10.80;99.90;;;;;;5068206;28;20424;-86
2023/12/28 03:31:40;;;;;;;37.05;5.15;;;11.00;99.90;;;;;;5063059;28;20738;-85
2023/12/28 03:34:06;;;;;;;26.75;4.88;;;11.00;99.90;;;;;;5066471;28;20081;-85
2023/12/28 03:36:31;;;;;;;36.42;5.05;;;11.20;99.90;;;;;;5065379;28;20044;-85
2023/12/28 03:38:57;;;;;;;30.52;5.28;;;11.10;99.90;;;;;;5063103;28;20075;-85
2023/12/28 03:41:23;;;;;;;31.83;4.53;;;11.20;99.90;;;;;;5058960;28;20670;-85
2023/12/28 03:43:48;;;;;;;41.53;5.30;;;11.20;99.90;;;;;;5061108;28;20552;-85
2023/12/28 03:46:14;;;;;;;28.25;4.95;;;11.20;99.90;;;;;;5058824;28;20048;-84
2023/12/28 03:48:40;;;;;;;37.85;5.65;;;11.30;99.90;;;;;;5063283;28;20511;-85
2023/12/28 03:51:06;;;;;;;33.28;4.63;;;11.50;99.90;;;;;;5067381;28;20115;-85
2023/12/28 03:53:32;;;;;;;42.63;6.10;;;11.40;99.90;;;;;;5062093;28;20036;-82
2023/12/28 03:55:59;;;;;;;31.10;4.72;;;11.40;99.90;;;;;;5061645;28;20052;-85
2023/12/28 03:58:25;;;;;;;26.63;4.57;;;11.50;99.90;;;;;;5065192;28;20514;-86
2023/12/28 04:00:50;;;;;;;30.63;5.18;;;11.50;99.90;;;;;;5065870;28;20036;-85
2023/12/28 04:03:16;;;;;;;31.02;4.85;;;11.60;99.90;;;;;;5064257;28;20035;-84
2023/12/28 04:05:43;;;;;;;26.13;5.10;;;11.60;99.90;;;;;;5066879;28;20112;-84
2023/12/28 04:08:09;;;;;;;27.20;4.05;;;11.60;99.90;;;;;;5064201;28;20040;-84
2023/12/28 04:10:37;;;;;;;21.20;3.65;;;11.60;99.90;;;;;;5059704;28;20079;-86
2023/12/28 04:13:03;;;;;;;21.17;3.70;;;11.60;99.90;;;;;;5057547;28;20027;-85
2023/12/28 04:15:29;;;;;;;21.80;4.15;;;11.60;99.90;;;;;;5065128;28;20024;-83
2023/12/28 04:17:55;;;;;;;30.23;4.55;;;11.60;99.90;;;;;;5061238;28;20029;-83
2023/12/28 04:20:20;;;;;;;41.53;5.18;;;11.60;99.90;;;;;;5062901;28;20039;-83
2023/12/28 04:22:46;;;;;;;38.03;4.38;;;11.50;99.90;;;;;;5063403;28;20079;-83
2023/12/28 04:25:12;;;;;;;33.60;4.78;;;11.50;99.90;;;;;;5066045;28;20484;-83
2023/12/28 04:27:38;;;;;;;34.58;5.68;;;11.50;99.90;;;;;;5061469;28;20397;-82
2023/12/28 04:30:05;;;;;;;30.88;4.53;;;11.60;99.90;;;;;;5065176;28;20032;-83
2023/12/28 04:32:32;;;;;;;38.00;5.07;;;11.60;99.90;;;;;;5062292;28;20039;-83
2023/12/28 04:34:58;;;;;;;32.10;5.15;;;11.60;99.90;;;;;;5066136;28;20024;-83
2023/12/28 04:37:25;;;;;;;43.67;5.55;;;11.60;99.90;;;;;;5064147;28;20393;-82
2023/12/28 04:39:52;;;;;;;36.25;4.20;;;11.50;99.90;;;;;;5066523;28;20044;-82
2023/12/28 04:42:18;;;;;;;40.72;5.90;;;11.40;99.90;;;;;;5062418;28;20124;-82
2023/12/28 04:44:44;;;;;;;32.88;5.13;;;11.30;99.90;;;;;;5064860;28;20119;-82
2023/12/28 04:47:10;;;;;;;35.72;5.47;;;11.30;99.90;;;;;;5056778;28;20091;-82
2023/12/28 04:49:35;;;;;;;39.47;4.75;;;11.30;99.90;;;;;;5066537;28;20480;-82
2023/12/28 04:52:01;;;;;;;32.47;3.97;;;11.40;99.90;;;;;;5064046;28;20035;-82
2023/12/28 04:54:27;;;;;;;32.70;5.43;;;11.40;99.90;;;;;;5067807;28;20028;-82
2023/12/28 04:56:53;;;;;;;33.88;5.22;;;11.50;99.90;;;;;;5064901;28;20025;-82
2023/12/28 04:59:18;;;;;;;36.08;5.18;;;11.40;99.90;;;;;;5066962;28;20024;-83
2023/12/28 05:01:46;;;;;;;30.92;4.28;;;11.40;99.90;;;;;;5063119;28;20032;-82
2023/12/28 05:04:11;;;;;;;29.27;5.07;;;11.40;99.90;;;;;;5064426;28;20029;-82
2023/12/28 05:06:37;;;;;;;41.58;5.45;;;11.40;99.90;;;;;;5062601;28;20036;-82
2023/12/28 05:09:04;;;;;;;30.92;4.25;;;11.50;99.90;;;;;;5062834;28;20028;-81
2023/12/28 05:11:30;;;;;;;28.30;3.90;;;11.60;99.90;;;;;;5076944;28;20144;-82
2023/12/28 05:13:55;;;;;;;34.08;4.60;;;11.70;99.90;;;;;;5085323;28;20036;-81
2023/12/28 05:16:21;;;;;;;27.50;4.97;;;11.70;99.90;;;;;;5085552;28;20078;-82
2023/12/28 05:18:47;;;;;;;21.13;4.60;;;11.60;99.90;;;;;;5089020;28;20313;-83
2023/12/28 05:21:13;;;;;;;35.55;5.97;;;11.70;99.90;;;;;;5069154;28;20479;-82
2023/12/28 05:23:39;;;;;;;19.13;3.58;;;11.70;99.90;;;;;;5065309;28;20028;-83
2023/12/28 05:26:05;;;;;;;20.23;4.38;;;11.70;99.90;;;;;;5065605;28;20024;-82
2023/12/28 05:28:31;;;;;;;14.50;2.67;;;11.70;99.90;;;;;;5063712;28;20037;-83
2023/12/28 05:30:58;;;;;;;12.20;2.65;;;11.70;99.90;;;;;;5059845;28;20037;-83
2023/12/28 05:33:25;;;;;;;12.50;2.70;;;11.60;99.90;;;;;;5063268;28;20029;-80
2023/12/28 05:35:50;;;;;;;20.00;2.60;;;11.50;99.90;;;;;;5063236;28;20055;-82
2023/12/28 05:38:17;;;;;;;20.40;3.22;;;11.40;99.90;;;;;;5059938;28;20020;-81
2023/12/28 05:40:44;;;;;;;15.65;3.20;;;11.30;99.90;;;;;;5058453;28;20569;-81
2023/12/28 05:43:10;;;;;;;16.67;2.55;;;11.30;99.90;;;;;;5064034;28;20032;-82
2023/12/28 05:45:36;;;;;;;24.20;4.20;;;11.30;99.90;;;;;;5063006;28;20085;-83
2023/12/28 05:48:01;;;;;;;25.17;3.75;;;11.10;99.90;;;;;;5063812;28;20105;-82
2023/12/28 05:50:27;;;;;;;16.17;2.58;;;11.10;99.90;;;;;;5065357;28;20047;-82
2023/12/28 05:52:53;;;;;;;21.67;3.72;;;11.10;99.90;;;;;;5061639;28;20532;-82
2023/12/28 05:55:18;;;;;;;20.80;3.05;;;11.10;99.90;;;;;;5062240;28;20034;-82
2023/12/28 05:57:44;;;;;;;38.15;5.53;;;11.10;99.90;;;;;;5062167;28;20444;-83
2023/12/28 06:00:10;;;;;;;29.05;4.93;;;11.10;99.90;;;;;;5062438;28;20581;-82
2023/12/28 06:02:36;;;;;;;22.52;3.15;;;11.20;99.90;;;;;;5061940;28;20123;-83
2023/12/28 06:05:02;;;;;;;32.50;4.80;;;11.30;99.90;;;;;;5065227;28;20273;-83
2023/12/28 06:07:27;;;;;;;33.88;4.38;;;11.30;99.90;;;;;;5057140;28;20151;-83
2023/12/28 06:09:53;;;;;;;28.27;4.18;;;11.30;99.90;;;;;;5061403;28;20036;-83
2023/12/28 06:12:19;;;;;;;29.02;4.28;;;11.30;99.90;;;;;;5064242;28;20029;-83
2023/12/28 06:14:44;;;;;;;22.23;4.05;;;11.40;99.90;;;;;;5066370;28;20033;-83
2023/12/28 06:17:10;;;;;;;31.05;4.72;;;11.40;99.90;;;;;;5063686;28;20043;-83
2023/12/28 06:19:35;;;;;;;30.67;4.35;;;11.30;99.90;;;;;;5056313;28;20066;-83
2023/12/28 06:22:01;;;;;;;30.00;4.00;;;11.30;99.90;;;;;;5064692;28;20174;-83
2023/12/28 06:24:27;;;;;;;39.08;5.45;;;11.20;99.90;;;;;;5063669;28;20089;-82
2023/12/28 06:26:52;;;;;;;34.50;4.55;;;11.20;99.90;;;;;;5064406;28;20037;-81
2023/12/28 06:29:18;;;;;;;33.53;5.10;;;11.20;99.90;;;;;;5064805;28;20056;-81
2023/12/28 06:31:43;;;;;;;37.17;6.97;;;11.20;99.90;;;;;;5062085;28;20369;-83
2023/12/28 06:34:09;;;;;;;23.52;5.75;;;11.20;99.90;;;;;;5061516;28;20177;-84
2023/12/28 06:36:35;;;;;;;23.05;4.00;;;11.20;99.90;;;;;;5062908;28;20644;-82
2023/12/28 06:39:00;;;;;;;33.13;4.60;;;11.30;99.90;;;;;;5059166;28;20039;-84
2023/12/28 06:41:26;;;;;;;37.00;4.55;;;11.30;99.90;;;;;;5063331;28;20119;-83
2023/12/28 06:43:52;;;;;;;32.92;5.25;;;11.30;99.90;;;;;;5059888;28;20024;-83
2023/12/28 06:46:19;;;;;;;31.23;5.13;;;11.30;99.90;;;;;;5064317;28;20082;-83
2023/12/28 06:48:45;;;;;;;32.65;5.90;;;11.40;99.90;;;;;;5063582;28;20040;-83
2023/12/28 06:51:17;;;;;;;38.58;5.80;;;11.40;99.90;;;;;;5065857;28;20369;-83
2023/12/28 06:53:42;;;;;;;33.40;5.38;;;11.50;99.90;;;;;;5060633;28;20100;-83
2023/12/28 06:56:09;;;;;;;25.98;4.38;;;11.50;99.90;;;;;;5066996;28;20109;-83
2023/12/28 06:58:35;;;;;;;29.65;3.78;;;11.50;99.90;;;;;;5068963;28;20033;-83
2023/12/28 07:01:04;;;;;;;30.45;4.95;;;11.40;99.90;;;;;;5066100;28;20366;-83
2023/12/28 07:03:32;;;;;;;35.13;4.85;;;11.50;99.90;;;;;;5062770;28;20040;-83
2023/12/28 07:05:58;;;;;;;40.65;5.72;;;11.50;99.90;;;;;;5066618;28;20383;-83
2023/12/28 07:08:24;;;;;;;29.67;5.25;;;11.40;99.90;;;;;;5063751;28;20636;-82
2023/12/28 07:10:49;;;;;;;44.60;5.00;;;11.30;99.90;;;;;;5067695;28;20037;-83
2023/12/28 07:13:15;;;;;;;36.28;5.57;;;11.30;99.90;;;;;;5063526;28;20403;-83
2023/12/28 07:15:41;;;;;;;31.52;4.90;;;11.30;99.90;;;;;;5069573;28;20027;-83
2023/12/28 07:18:06;;;;;;;34.42;5.68;;;11.20;99.90;;;;;;5077441;28;20036;-82
2023/12/28 07:20:32;;;;;;;27.23;5.10;;;11.30;99.90;;;;;;5092284;28;20415;-82
2023/12/28 07:22:58;;;;;;;21.50;3.85;;;11.20;99.90;;;;;;5088786;28;20032;-81
2023/12/28 07:25:23;;;;;;;51.65;5.78;;;11.10;99.90;;;;;;5091275;28;20044;-82
2023/12/28 07:27:49;;;;;;;30.65;4.72;;;11.10;99.90;;;;;;5071977;28;20491;-82
2023/12/28 07:30:16;;;;;;;31.50;4.75;;;11.00;99.90;;;;;;5064702;28;20025;-82
2023/12/28 07:32:43;;;;;;;34.22;6.93;;;11.00;99.90;;;;;;5067742;28;20056;-81
2023/12/28 07:35:09;;;;;;;28.23;4.70;;;11.00;99.90;;;;;;5058316;28;20477;-83
2023/12/28 07:37:34;;;;;;;29.42;4.45;;;11.10;99.90;;;;;;5059796;28;20520;-82
2023/12/28 07:40:01;;;;;;;33.50;4.78;;;11.00;99.90;;;;;;5062536;28;20044;-83
2023/12/28 07:42:27;;;;;;;24.77;3.85;;;10.90;99.90;;;;;;5064781;28;20078;-82
2023/12/28 07:44:52;;;;;;;40.65;6.60;;;10.90;99.90;;;;;;5064868;28;20272;-82
2023/12/28 07:47:18;;;;;;;40.47;5.57;;;10.90;99.90;;;;;;5064977;28;20054;-82
2023/12/28 07:49:43;;;;;;;35.53;5.93;;;10.90;99.90;;;;;;5063607;28;20075;-83
2023/12/28 07:52:09;;;;;;;37.33;4.82;;;11.00;99.90;;;;;;5064940;28;20051;-82
2023/12/28 07:54:35;;;;;;;27.38;3.88;;;11.00;99.90;;;;;;5064462;28;20721;-82
2023/12/28 07:57:00;;;;;;;38.75;5.38;;;11.00;99.90;;;;;;5059904;28;20033;-83
2023/12/28 07:59:26;;;;;;;37.72;4.68;;;11.10;99.90;;;;;;5064742;28;20028;-82
2023/12/28 08:01:51;;;;;;;34.92;5.25;;;11.10;99.90;;;;;;5064573;28;20089;-82
2023/12/28 08:04:17;;;;;;;39.67;5.95;;;11.10;99.90;;;;;;5065403;28;20036;-82
2023/12/28 08:06:43;;;;;;;39.10;4.85;;;11.10;99.90;;;;;;5063289;28;20060;-82
2023/12/28 08:09:08;;;;;;;38.63;5.10;;;11.00;99.90;;;;;;5066993;28;20031;-82
2023/12/28 08:11:34;;;;;;;38.05;7.25;;;11.10;99.90;;;;;;5063606;28;20027;-83
2023/12/28 08:14:00;;;;;;;34.50;4.50;;;11.00;99.90;;;;;;5063552;28;20036;-82
2023/12/28 08:16:26;;;;;;;31.25;5.18;;;11.20;99.90;;;;;;5061335;28;20606;-82
2023/12/28 08:18:52;;;;;;;28.40;4.85;;;11.20;99.90;;;;;;5064844;28;20040;-82
2023/12/28 08:21:17;;;;;;;30.33;4.68;;;11.20;99.90;;;;;;5063382;28;20389;-82
2023/12/28 08:23:44;;;;;;;31.88;5.43;;;11.20;99.90;;;;;;5066344;28;20126;-82
2023/12/28 08:26:10;;;;;;;27.25;4.28;;;11.30;99.90;;;;;;5063309;28;20056;-82
2023/12/28 08:28:36;;;;;;;38.70;6.07;;;11.10;99.90;;;;;;5065921;28;20036;-82
2023/12/28 08:31:02;;;;;;;29.83;5.30;;;11.00;99.90;;;;;;5065533;28;20533;-82
2023/12/28 08:33:28;;;;;;;46.80;5.40;;;11.00;99.90;;;;;;5064721;28;20025;-82
2023/12/28 08:35:54;;;;;;;33.95;4.88;;;11.10;99.90;;;;;;5062831;28;20032;-82
2023/12/28 08:38:19;;;;;;;26.38;4.50;;;11.20;99.90;;;;;;5061718;28;20044;-82
2023/12/28 08:40:45;;;;;;;35.55;5.80;;;11.10;99.90;;;;;;5063073;28;20076;-82
2023/12/28 08:43:15;;;;;;;28.75;5.00;;;11.00;99.90;;;;;;5062803;28;20062;-81
2023/12/28 08:45:41;;;;;;;30.00;4.75;;;11.00;99.90;;;;;;5065341;28;20056;-81
2023/12/28 08:48:07;;;;;;;39.63;5.68;;;11.20;99.90;;;;;;5065207;28;20098;-81
2023/12/28 08:50:32;;;;;;;28.42;4.70;;;11.20;99.90;;;;;;5063073;28;20032;-81
2023/12/28 08:52:58;;;;;;;26.52;4.22;;;11.40;99.90;;;;;;5061484;28;20067;-81
2023/12/28 08:55:23;;;;;;;28.30;5.13;;;11.40;99.90;;;;;;5062937;28;20066;-81
2023/12/28 08:57:49;;;;;;;54.28;6.88;;;11.40;99.90;;;;;;5063590;28;20451;-82
2023/12/28 09:00:16;;;;;;;34.15;5.78;;;11.40;99.90;;;;;;5061876;28;20024;-82
2023/12/28 09:02:42;;;;;;;40.40;5.88;;;11.50;99.90;;;;;;5064246;28;20024;-81
2023/12/28 09:05:08;;;;;;;41.30;5.95;;;11.60;99.90;;;;;;5064879;28;20032;-82
2023/12/28 09:07:36;;;;;;;26.52;4.00;;;11.60;99.90;;;;;;5065650;28;20331;-82
2023/12/28 09:10:02;;;;;;;22.58;4.13;;;11.60;99.90;;;;;;5079993;28;20021;-81
2023/12/28 09:12:28;;;;;;;36.80;5.28;;;11.60;99.90;;;;;;5077317;28;20035;-81
2023/12/28 09:14:54;;;;;;;34.22;5.13;;;11.50;99.90;;;;;;5078437;28;20037;-82
2023/12/28 09:17:23;;;;;;;29.70;5.30;;;11.60;99.90;;;;;;5070420;28;20194;-82
2023/12/28 09:19:48;;;;;;;36.65;5.30;;;11.60;99.90;;;;;;5064516;28;20024;-82
2023/12/28 09:22:14;;;;;;;29.38;4.85;;;11.60;99.90;;;;;;5072579;28;20129;-82
2023/12/28 09:24:39;;;;;;;31.15;4.90;;;11.60;99.90;;;;;;5088565;28;20059;-82
2023/12/28 09:27:05;;;;;;;26.42;4.20;;;11.60;99.90;;;;;;5086186;28;20060;-82
2023/12/28 09:29:31;;;;;;;24.55;4.50;;;11.60;99.90;;;;;;5083927;28;20129;-82
2023/12/28 09:31:57;;;;;;;29.33;5.00;;;11.70;99.90;;;;;;5070819;28;20021;-82
2023/12/28 09:34:22;;;;;;;35.67;4.53;;;11.70;99.90;;;;;;5067153;28;21004;-82
2023/12/28 09:36:48;;;;;;;23.52;4.47;;;11.70;99.90;;;;;;5063624;28;20048;-82
2023/12/28 09:39:13;;;;;;;30.92;4.95;;;11.80;99.90;;;;;;5062983;28;20633;-82
2023/12/28 09:41:44;;;;;;;27.73;3.88;;;11.80;99.90;;;;;;5057429;28;20583;-82
2023/12/28 09:44:15;;;;;;;35.28;4.10;;;11.80;99.90;;;;;;5061623;28;20123;-82
2023/12/28 09:46:42;;;;;;;31.92;4.55;;;11.80;99.90;;;;;;5063923;28;20040;-82
2023/12/28 09:49:09;;;;;;;30.45;4.22;;;11.80;99.90;;;;;;5062979;28;20170;-82
2023/12/28 09:51:35;;;;;;;28.48;4.78;;;11.80;99.90;;;;;;5055537;28;20480;-82
2023/12/28 09:54:03;;;;;;;35.70;5.68;;;11.80;99.90;;;;;;5064150;28;20032;-82
2023/12/28 09:56:29;;;;;;;27.73;4.30;;;11.80;99.90;;;;;;5061944;28;20025;-82
2023/12/28 09:58:56;;;;;;;25.80;3.83;;;11.80;99.90;;;;;;5061686;28;20043;-83
2023/12/28 10:01:22;;;;;;;28.58;4.10;;;11.90;99.90;;;;;;5061476;28;20210;-82
2023/12/28 10:03:48;;;;;;;31.23;4.22;;;12.00;99.90;;;;;;5064385;28;20107;-82
2023/12/28 10:06:15;;;;;;;28.40;3.90;;;12.10;99.90;;;;;;5064721;28;20093;-82
2023/12/28 10:08:49;;;;;;;26.35;3.75;;;12.20;99.90;;;;;;5060237;28;20065;-82
2023/12/28 10:11:17;;;;;;;27.58;3.38;;;12.20;99.90;;;;;;5061652;28;20024;-82
2023/12/28 10:13:43;;;;;;;19.63;3.72;;;12.30;99.90;;;;;;5061815;28;20060;-82
2023/12/28 10:16:10;;;;;;;20.08;3.70;;;12.40;99.90;;;;;;5065886;28;20025;-82
2023/12/28 10:18:37;;;;;;;36.55;4.13;;;12.30;99.90;;;;;;5063243;28;20056;-82
2023/12/28 10:21:02;;;;;;;24.80;4.05;;;12.30;99.90;;;;;;5061682;28;20043;-82
2023/12/28 10:23:28;;;;;;;24.08;5.07;;;12.30;99.90;;;;;;5061460;28;20031;-82
2023/12/28 10:25:56;;;;;;;32.78;4.15;;;12.50;99.90;;;;;;5057806;28;20017;-82
2023/12/28 10:28:22;;;;;;;30.40;4.35;;;12.60;99.90;;;;;;5064199;28;20138;-82
2023/12/28 10:30:47;;;;;;;28.15;4.22;;;12.60;99.90;;;;;;5066935;28;20070;-82
2023/12/28 10:33:14;;;;;;;24.33;3.80;;;12.40;99.90;;;;;;5066460;28;20063;-82
2023/12/28 10:35:40;;;;;;;24.90;4.05;;;12.30;99.90;;;;;;5068370;28;20032;-82
2023/12/28 10:38:10;;;;;;;20.10;4.28;;;12.00;99.90;;;;;;5061277;28;20035;-82
2023/12/28 10:40:38;;;;;;;24.20;3.53;;;11.50;99.90;;;;;;5065496;28;20044;-83
2023/12/28 10:43:06;;;;;;;48.58;5.32;;;11.20;99.90;;;;;;5066394;28;20111;-83
2023/12/28 10:45:34;;;;;;;25.60;4.88;;;11.20;99.90;;;;;;5059686;28;20037;-82
2023/12/28 10:48:26;;;;;;;34.85;4.40;;;11.30;99.90;;;;;;5065641;28;20098;-83
2023/12/28 10:50:52;;;;;;;25.98;4.30;;;11.30;99.90;;;;;;5065004;28;20024;-82
2023/12/28 10:53:39;;;;;;;26.00;4.13;;;11.30;99.90;;;;;;5064475;28;20033;-82
2023/12/28 10:56:29;;;;;;;41.28;5.85;;;11.10;99.90;;;;;;5058011;28;20124;-82
2023/12/28 10:59:23;;;;;;;33.50;4.95;;;10.70;99.90;;;;;;5063712;28;20021;-83
2023/12/28 11:01:54;;;;;;;24.88;5.15;;;10.50;99.90;;;;;;5064251;28;20025;-80
2023/12/28 11:04:34;;;;;;;34.22;5.68;;;10.40;99.90;;;;;;5059105;28;20035;-82
2023/12/28 11:07:02;;;;;;;43.25;6.32;;;10.30;99.90;;;;;;5057368;28;20407;-83
2023/12/28 11:09:31;;;;;;;43.67;5.95;;;10.30;99.90;;;;;;5061024;28;20032;-85
2023/12/28 11:12:00;;;;;;;32.70;4.72;;;10.30;99.90;;;;;;5067686;28;20102;-84
2023/12/28 11:14:27;;;;;;;39.00;5.53;;;10.40;99.90;;;;;;5067140;28;20036;-84
2023/12/28 11:16:54;;;;;;;21.90;3.25;;;10.40;99.90;;;;;;5067738;28;20111;-83
2023/12/28 11:19:21;;;;;;;22.48;3.28;;;10.40;99.90;;;;;;5066934;28;20480;-84
2023/12/28 11:21:49;;;;;;;22.15;3.55;;;10.40;99.90;;;;;;5066862;28;20039;-83
2023/12/28 11:24:16;;;;;;;18.52;2.88;;;10.30;99.90;;;;;;5069470;28;20031;-83
2023/12/28 11:26:42;;;;;;;22.38;3.13;;;10.30;99.90;;;;;;5086473;28;20028;-83
2023/12/28 11:29:08;;;;;;;15.20;2.75;;;10.20;99.90;;;;;;5087495;28;20032;-84
2023/12/28 11:31:35;;;;;;;16.98;2.70;;;10.30;99.90;;;;;;5087845;28;20028;-83
2023/12/28 11:34:03;;;;;;;18.70;3.58;;;10.50;99.90;;;;;;5075478;28;20036;-84
2023/12/28 11:36:35;;;;;;;15.98;2.63;;;10.80;99.90;;;;;;5067076;28;20040;-84
2023/12/28 11:39:03;;;;;;;25.27;3.72;;;10.80;99.90;;;;;;5065936;28;20113;-83
2023/12/28 11:41:32;;;;;;;21.17;2.67;;;10.80;99.90;;;;;;5064394;28;20524;-83
2023/12/28 11:44:05;;;;;;;34.03;3.75;;;10.80;99.90;;;;;;5068877;28;20335;-83
2023/12/28 11:46:31;;;;;;;35.45;5.03;;;10.70;99.90;;;;;;5059362;28;20217;-84
2023/12/28 11:49:06;;;;;;;31.75;4.72;;;10.80;99.90;;;;;;5063259;28;20028;-83
2023/12/28 11:51:33;;;;;;;;;;;10.90;99.90;;;;;;5063893;28;20025;-83
2023/12/28 11:53:59;;;;;;;38.97;5.43;;;10.90;99.90;;;;;;5061580;28;19956;-84
2023/12/28 11:56:25;;;;;;;29.40;3.92;;;11.00;99.90;;;;;;5061519;28;20422;-83
2023/12/28 11:58:51;;;;;;;26.75;4.18;;;11.40;99.90;;;;;;5060913;28;20051;-83
2023/12/28 12:01:17;;;;;;;35.10;4.53;;;11.60;99.90;;;;;;5066066;28;20036;-84
2023/12/28 12:03:43;;;;;;;26.33;4.63;;;11.60;99.90;;;;;;5063538;28;20032;-85
2023/12/28 12:06:09;;;;;;;14.45;3.30;;;11.60;99.90;;;;;;5061625;28;20055;-85
2023/12/28 12:08:35;;;;;;;24.67;4.20;;;11.50;99.90;;;;;;5063014;28;20116;-85
2023/12/28 12:11:04;;;;;;;31.52;5.03;;;11.50;99.90;;;;;;5062881;28;20044;-84
2023/12/28 12:13:30;;;;;;;21.42;3.90;;;11.40;99.90;;;;;;5061800;28;20496;-84
2023/12/28 12:15:56;;;;;;;22.45;3.90;;;11.40;99.90;;;;;;5065561;28;20039;-84
2023/12/28 12:18:22;;;;;;;35.53;4.97;;;11.40;99.90;;;;;;5063665;28;20473;-84
2023/12/28 12:20:49;;;;;;;32.17;4.80;;;11.40;99.90;;;;;;5068849;28;20036;-82
2023/12/28 12:23:16;;;;;;;37.22;4.80;;;11.40;99.90;;;;;;5067264;28;20911;-85
2023/12/28 12:25:42;;;;;;;23.15;4.53;;;11.30;99.90;;;;;;5073683;28;20070;-85
2023/12/28 12:28:08;;;;;;;36.65;4.50;;;11.50;99.90;;;;;;5079091;28;20044;-85
2023/12/28 12:30:34;;;;;;;29.40;4.15;;;11.70;99.90;;;;;;5073215;28;20025;-85
2023/12/28 12:33:00;;;;;;;22.40;3.03;;;11.70;99.90;;;;;;5066841;28;20024;-85
2023/12/28 12:35:27;;;;;;;19.23;2.42;;;11.60;99.90;;;;;;5071440;28;20033;-85